sensor_id;sensor_type;location;lat;lon;timestamp;pressure;altitude;pressure_sealevel;temperature;humidity
63343;BME280;49465;57.664;39.686;2023-02-18T00:02:21;100654.19;;;-1.45;53.70
63343;BME280;49465;57.664;39.686;2023-02-18T00:04:53;100622.84;;;-0.99;52.63
63343;BME280;49465;57.664;39.686;2023-02-18T00:07:24;100649.91;;;-0.67;52.35
63343;BME280;49465;57.664;39.686;2023-02-18T00:09:54;100651.56;;;-1.39;53.67
63343;BME280;49465;57.664;39.686;2023-02-18T00:12:26;100649.00;;;-1.41;54.33
63343;BME280;49465;57.664;39.686;2023-02-18T00:14:56;100643.03;;;-0.65;52.53
63343;BME280;49465;57.664;39.686;2023-02-18T00:17:24;100635.88;;;-0.43;51.88
63343;BME280;49465;57.664;39.686;2023-02-18T00:19:59;100631.47;;;-0.35;51.38
63343;BME280;49465;57.664;39.686;2023-02-18T00:22:28;100623.97;;;-1.23;53.51
63343;BME280;49465;57.664;39.686;2023-02-18T00:24:57;100622.13;;;-0.44;51.90
63343;BME280;49465;57.664;39.686;2023-02-18T00:27:30;100617.69;;;-0.34;51.68
63343;BME280;49465;57.664;39.686;2023-02-18T00:29:59;100623.06;;;-1.17;53.21
63343;BME280;49465;57.664;39.686;2023-02-18T00:32:33;100618.97;;;-0.63;52.70
63343;BME280;49465;57.664;39.686;2023-02-18T00:35:03;100613.09;;;-1.51;54.04
63343;BME280;49465;57.664;39.686;2023-02-18T00:37:35;100611.25;;;-0.64;52.94
63343;BME280;49465;57.664;39.686;2023-02-18T00:40:04;100602.53;;;-0.55;52.15
63343;BME280;49465;57.664;39.686;2023-02-18T00:42:35;100604.88;;;-0.37;51.32
63343;BME280;49465;57.664;39.686;2023-02-18T00:45:08;100604.16;;;-1.16;53.37
63343;BME280;49465;57.664;39.686;2023-02-18T00:47:37;100602.44;;;-0.46;52.10
63343;BME280;49465;57.664;39.686;2023-02-18T00:50:12;100596.22;;;-0.31;51.46
63343;BME280;49465;57.664;39.686;2023-02-18T00:52:41;100593.91;;;-1.20;53.12
63343;BME280;49465;57.664;39.686;2023-02-18T00:55:10;100589.66;;;-0.55;52.71
63343;BME280;49465;57.664;39.686;2023-02-18T00:57:39;100590.53;;;-1.25;53.12
63343;BME280;49465;57.664;39.686;2023-02-18T01:00:08;100580.50;;;-1.49;54.25
63343;BME280;49465;57.664;39.686;2023-02-18T01:02:37;100578.81;;;-0.77;53.09
63343;BME280;49465;57.664;39.686;2023-02-18T01:05:04;100578.03;;;-1.62;54.36
63343;BME280;49465;57.664;39.686;2023-02-18T01:07:33;100570.31;;;-1.58;54.92
63343;BME280;49465;57.664;39.686;2023-02-18T01:10:02;100567.75;;;-0.86;53.60
63343;BME280;49465;57.664;39.686;2023-02-18T01:12:32;100562.59;;;-1.60;54.58
63343;BME280;49465;57.664;39.686;2023-02-18T01:15:08;100561.41;;;-1.30;54.75
63343;BME280;49465;57.664;39.686;2023-02-18T01:17:34;100559.16;;;-1.59;54.24
63343;BME280;49465;57.664;39.686;2023-02-18T01:20:01;100554.66;;;-0.69;53.03
63343;BME280;49465;57.664;39.686;2023-02-18T01:22:27;100546.97;;;-0.70;52.90
63343;BME280;49465;57.664;39.686;2023-02-18T01:24:54;100543.63;;;-1.48;53.31
63343;BME280;49465;57.664;39.686;2023-02-18T01:27:25;100541.50;;;-0.49;52.35
63343;BME280;49465;57.664;39.686;2023-02-18T01:29:52;100540.13;;;-1.41;53.95
63343;BME280;49465;57.664;39.686;2023-02-18T01:32:18;100531.16;;;-0.47;52.34
63343;BME280;49465;57.664;39.686;2023-02-18T01:34:52;100531.28;;;-1.22;53.54
63343;BME280;49465;57.664;39.686;2023-02-18T01:37:24;100531.44;;;-1.34;53.92
63343;BME280;49465;57.664;39.686;2023-02-18T01:39:56;100533.09;;;-1.27;54.36
63343;BME280;49465;57.664;39.686;2023-02-18T01:42:27;100533.88;;;-0.56;52.42
63343;BME280;49465;57.664;39.686;2023-02-18T01:45:23;100532.66;;;-0.32;51.56
63343;BME280;49465;57.664;39.686;2023-02-18T01:47:46;100530.28;;;-1.10;53.53
63343;BME280;49465;57.664;39.686;2023-02-18T01:50:21;100527.63;;;-0.40;52.22
63343;BME280;49465;57.664;39.686;2023-02-18T01:52:59;100515.31;;;-0.21;51.35
63343;BME280;49465;57.664;39.686;2023-02-18T01:55:35;100516.06;;;-0.16;51.21
63343;BME280;49465;57.664;39.686;2023-02-18T01:58:07;100509.66;;;-1.05;53.20
63343;BME280;49465;57.664;39.686;2023-02-18T02:00:34;100512.88;;;-0.32;51.38
63343;BME280;49465;57.664;39.686;2023-02-18T02:03:04;100517.66;;;-1.25;54.02
63343;BME280;49465;57.664;39.686;2023-02-18T02:05:38;100514.94;;;-0.52;52.57
63343;BME280;49465;57.664;39.686;2023-02-18T02:08:08;100504.16;;;-0.23;51.58
63343;BME280;49465;57.664;39.686;2023-02-18T02:13:52;100508.44;;;-0.24;51.58
63343;BME280;49465;57.664;39.686;2023-02-18T02:36:40;100485.72;;;-0.51;52.73
63343;BME280;49465;57.664;39.686;2023-02-18T02:42:55;100483.66;;;-0.85;53.57
63343;BME280;49465;57.664;39.686;2023-02-18T02:53:51;100474.16;;;-0.27;52.33
63343;BME280;49465;57.664;39.686;2023-02-18T02:56:25;100468.50;;;-1.07;53.92
63343;BME280;49465;57.664;39.686;2023-02-18T02:59:07;100466.69;;;-0.41;52.73
63343;BME280;49465;57.664;39.686;2023-02-18T03:10:57;100457.19;;;-0.95;54.31
63343;BME280;49465;57.664;39.686;2023-02-18T03:19:01;100456.97;;;-0.27;52.23
63343;BME280;49465;57.664;39.686;2023-02-18T03:22:15;100449.00;;;-1.25;54.03
63343;BME280;49465;57.664;39.686;2023-02-18T03:24:29;100440.97;;;-0.46;52.71
63343;BME280;49465;57.664;39.686;2023-02-18T03:27:15;100441.66;;;-0.34;52.73
63343;BME280;49465;57.664;39.686;2023-02-18T03:29:55;100430.19;;;-0.18;51.97
63343;BME280;49465;57.664;39.686;2023-02-18T03:32:29;100429.41;;;-0.22;51.95
63343;BME280;49465;57.664;39.686;2023-02-18T03:35:03;100435.88;;;-1.05;53.51
63343;BME280;49465;57.664;39.686;2023-02-18T03:37:39;100433.91;;;-0.34;52.15
63343;BME280;49465;57.664;39.686;2023-02-18T03:40:11;100425.59;;;-1.06;53.86
63343;BME280;49465;57.664;39.686;2023-02-18T03:42:40;100421.66;;;-1.30;53.49
63343;BME280;49465;57.664;39.686;2023-02-18T03:45:10;100417.97;;;-0.56;53.16
63343;BME280;49465;57.664;39.686;2023-02-18T03:47:40;100423.19;;;-1.18;54.00
63343;BME280;49465;57.664;39.686;2023-02-18T03:50:07;100422.47;;;-0.69;53.68
63343;BME280;49465;57.664;39.686;2023-02-18T03:52:33;100414.53;;;-0.57;53.33
63343;BME280;49465;57.664;39.686;2023-02-18T03:55:07;100413.47;;;-0.45;53.20
63343;BME280;49465;57.664;39.686;2023-02-18T03:57:37;100415.88;;;-0.34;52.97
63343;BME280;49465;57.664;39.686;2023-02-18T04:00:06;100410.22;;;-1.11;54.23
63343;BME280;49465;57.664;39.686;2023-02-18T04:02:36;100405.28;;;-1.25;54.32
63343;BME280;49465;57.664;39.686;2023-02-18T04:05:05;100403.53;;;-1.21;54.69
63343;BME280;49465;57.664;39.686;2023-02-18T04:07:35;100398.78;;;-1.50;54.95
63343;BME280;49465;57.664;39.686;2023-02-18T04:10:06;100389.00;;;-1.25;54.68
63343;BME280;49465;57.664;39.686;2023-02-18T04:12:38;100382.81;;;-0.59;53.19
63343;BME280;49465;57.664;39.686;2023-02-18T04:15:14;100394.69;;;-1.03;53.94
63343;BME280;49465;57.664;39.686;2023-02-18T04:17:40;100388.22;;;-1.32;54.45
63343;BME280;49465;57.664;39.686;2023-02-18T04:20:12;100394.59;;;-0.46;53.32
63343;BME280;49465;57.664;39.686;2023-02-18T04:22:44;100401.91;;;-1.30;54.56
63343;BME280;49465;57.664;39.686;2023-02-18T04:25:13;100401.63;;;-0.55;53.52
63343;BME280;49465;57.664;39.686;2023-02-18T04:27:45;100403.31;;;-1.07;54.26
63343;BME280;49465;57.664;39.686;2023-02-18T04:30:15;100396.56;;;-0.58;53.16
63343;BME280;49465;57.664;39.686;2023-02-18T04:32:44;100394.19;;;-1.30;54.33
63343;BME280;49465;57.664;39.686;2023-02-18T04:35:12;100384.97;;;-1.45;54.97
63343;BME280;49465;57.664;39.686;2023-02-18T04:37:39;100378.88;;;-0.80;54.09
63343;BME280;49465;57.664;39.686;2023-02-18T04:40:09;100384.69;;;-1.23;55.06
63343;BME280;49465;57.664;39.686;2023-02-18T04:42:35;100381.53;;;-1.45;55.15
63343;BME280;49465;57.664;39.686;2023-02-18T04:45:02;100379.22;;;-0.49;53.46
63343;BME280;49465;57.664;39.686;2023-02-18T04:47:34;100376.25;;;-0.27;52.66
63343;BME280;49465;57.664;39.686;2023-02-18T04:50:10;100382.22;;;-0.25;52.17
63343;BME280;49465;57.664;39.686;2023-02-18T04:52:41;100372.25;;;-0.96;54.22
63343;BME280;49465;57.664;39.686;2023-02-18T04:55:12;100370.00;;;-1.16;54.59
63343;BME280;49465;57.664;39.686;2023-02-18T04:57:38;100366.22;;;-0.43;53.01
63343;BME280;49465;57.664;39.686;2023-02-18T05:00:07;100369.50;;;-0.34;52.51
63343;BME280;49465;57.664;39.686;2023-02-18T05:02:37;100358.00;;;-0.18;52.42
63343;BME280;49465;57.664;39.686;2023-02-18T05:05:06;100353.88;;;-0.25;52.46
63343;BME280;49465;57.664;39.686;2023-02-18T05:07:35;100354.41;;;-1.07;53.97
63343;BME280;49465;57.664;39.686;2023-02-18T05:10:10;100346.72;;;-0.57;53.40
63343;BME280;49465;57.664;39.686;2023-02-18T05:12:42;100342.63;;;-1.24;54.66
63343;BME280;49465;57.664;39.686;2023-02-18T05:15:12;100340.03;;;-1.21;54.51
63343;BME280;49465;57.664;39.686;2023-02-18T05:17:41;100341.53;;;-0.56;53.32
63343;BME280;49465;57.664;39.686;2023-02-18T05:20:08;100337.47;;;-1.22;53.97
63343;BME280;49465;57.664;39.686;2023-02-18T05:22:37;100333.28;;;-1.28;54.16
63343;BME280;49465;57.664;39.686;2023-02-18T05:25:07;100329.06;;;-1.33;54.90
63343;BME280;49465;57.664;39.686;2023-02-18T05:27:36;100332.44;;;-1.28;54.98
63343;BME280;49465;57.664;39.686;2023-02-18T05:30:06;100331.94;;;-0.46;53.35
63343;BME280;49465;57.664;39.686;2023-02-18T05:32:38;100331.25;;;-1.06;54.16
63343;BME280;49465;57.664;39.686;2023-02-18T05:35:09;100317.91;;;-0.31;52.85
63343;BME280;49465;57.664;39.686;2023-02-18T05:37:36;100319.31;;;-1.11;54.01
63343;BME280;49465;57.664;39.686;2023-02-18T05:40:12;100323.75;;;-1.21;54.25
63343;BME280;49465;57.664;39.686;2023-02-18T05:42:44;100321.25;;;-0.26;52.59
63343;BME280;49465;57.664;39.686;2023-02-18T05:45:11;100311.56;;;-0.15;52.45
63343;BME280;49465;57.664;39.686;2023-02-18T05:47:39;100318.31;;;-1.03;53.87
63343;BME280;49465;57.664;39.686;2023-02-18T05:50:09;100310.88;;;-0.23;53.09
63343;BME280;49465;57.664;39.686;2023-02-18T05:52:38;100310.59;;;-0.08;52.55
63343;BME280;49465;57.664;39.686;2023-02-18T05:55:07;100303.78;;;-1.05;53.81
63343;BME280;49465;57.664;39.686;2023-02-18T05:57:36;100303.69;;;-1.02;54.02
63343;BME280;49465;57.664;39.686;2023-02-18T06:00:07;100295.91;;;-0.49;53.06
63343;BME280;49465;57.664;39.686;2023-02-18T06:02:38;100299.34;;;-0.97;54.27
63343;BME280;49465;57.664;39.686;2023-02-18T06:05:10;100295.34;;;-1.13;54.16
63343;BME280;49465;57.664;39.686;2023-02-18T06:07:37;100291.31;;;-0.33;52.98
63343;BME280;49465;57.664;39.686;2023-02-18T06:10:12;100288.06;;;-0.90;54.22
63343;BME280;49465;57.664;39.686;2023-02-18T06:12:42;100290.84;;;-1.02;54.27
63343;BME280;49465;57.664;39.686;2023-02-18T06:15:14;100283.47;;;-0.27;53.26
63343;BME280;49465;57.664;39.686;2023-02-18T06:17:46;100277.41;;;-0.25;52.96
63343;BME280;49465;57.664;39.686;2023-02-18T06:20:18;100271.88;;;-0.06;52.20
63343;BME280;49465;57.664;39.686;2023-02-18T06:22:46;100278.50;;;-0.36;53.14
63343;BME280;49465;57.664;39.686;2023-02-18T06:25:16;100272.78;;;-0.99;53.88
63343;BME280;49465;57.664;39.686;2023-02-18T06:27:48;100272.22;;;-1.18;54.85
63343;BME280;49465;57.664;39.686;2023-02-18T06:30:19;100272.78;;;-0.99;54.67
63343;BME280;49465;57.664;39.686;2023-02-18T06:32:51;100262.59;;;-0.15;52.93
63343;BME280;49465;57.664;39.686;2023-02-18T06:35:22;100259.56;;;-0.81;54.02
63343;BME280;49465;57.664;39.686;2023-02-18T06:37:51;100253.09;;;-1.02;53.88
63343;BME280;49465;57.664;39.686;2023-02-18T06:40:22;100254.84;;;-0.13;52.81
63343;BME280;49465;57.664;39.686;2023-02-18T06:42:52;100254.28;;;0.13;51.86
63343;BME280;49465;57.664;39.686;2023-02-18T06:45:24;100245.72;;;0.11;52.10
63343;BME280;49465;57.664;39.686;2023-02-18T06:47:59;100243.41;;;-0.89;53.45
63343;BME280;49465;57.664;39.686;2023-02-18T06:50:28;100246.03;;;-0.45;53.48
63343;BME280;49465;57.664;39.686;2023-02-18T06:53:03;100246.41;;;-0.65;54.16
63343;BME280;49465;57.664;39.686;2023-02-18T06:55:32;100241.16;;;-1.06;54.71
63343;BME280;49465;57.664;39.686;2023-02-18T06:58:02;100230.88;;;-0.17;53.17
63343;BME280;49465;57.664;39.686;2023-02-18T07:00:31;100227.09;;;-0.86;54.00
63343;BME280;49465;57.664;39.686;2023-02-18T07:03:01;100228.00;;;-0.05;52.71
63343;BME280;49465;57.664;39.686;2023-02-18T07:05:28;100230.56;;;-0.03;52.64
63343;BME280;49465;57.664;39.686;2023-02-18T07:08:06;100218.69;;;0.29;51.75
63343;BME280;49465;57.664;39.686;2023-02-18T07:10:35;100216.97;;;-0.52;53.27
63343;BME280;49465;57.664;39.686;2023-02-18T07:13:06;100224.00;;;-0.60;53.44
63343;BME280;49465;57.664;39.686;2023-02-18T07:15:33;100209.66;;;-0.72;53.92
63343;BME280;49465;57.664;39.686;2023-02-18T07:18:00;100210.56;;;-0.74;53.94
63343;BME280;49465;57.664;39.686;2023-02-18T07:20:27;100209.66;;;-0.72;54.21
63343;BME280;49465;57.664;39.686;2023-02-18T07:22:54;100205.41;;;-0.74;53.79
63343;BME280;49465;57.664;39.686;2023-02-18T07:25:26;100207.72;;;-0.61;53.69
63343;BME280;49465;57.664;39.686;2023-02-18T07:28:04;100204.38;;;-0.66;53.72
63343;BME280;49465;57.664;39.686;2023-02-18T07:30:33;100198.34;;;-0.65;54.09
63343;BME280;49465;57.664;39.686;2023-02-18T07:33:08;100193.91;;;-0.58;53.86
63343;BME280;49465;57.664;39.686;2023-02-18T07:35:39;100184.41;;;-0.54;53.53
63343;BME280;49465;57.664;39.686;2023-02-18T07:38:06;100184.56;;;-0.62;53.53
63343;BME280;49465;57.664;39.686;2023-02-18T07:40:35;100176.69;;;-0.54;53.63
63343;BME280;49465;57.664;39.686;2023-02-18T07:43:09;100171.97;;;-0.35;53.55
63343;BME280;49465;57.664;39.686;2023-02-18T07:45:39;100172.41;;;0.23;51.79
63343;BME280;49465;57.664;39.686;2023-02-18T07:48:12;100171.72;;;-0.23;53.00
63343;BME280;49465;57.664;39.686;2023-02-18T07:50:44;100165.94;;;-0.34;53.06
63343;BME280;49465;57.664;39.686;2023-02-18T07:53:22;100161.13;;;-0.11;53.30
63343;BME280;49465;57.664;39.686;2023-02-18T07:55:48;100154.75;;;0.42;51.88
63343;BME280;49465;57.664;39.686;2023-02-18T07:58:29;100154.50;;;-0.21;52.60
63343;BME280;49465;57.664;39.686;2023-02-18T08:00:57;100150.44;;;-0.31;53.07
63343;BME280;49465;57.664;39.686;2023-02-18T08:03:30;100145.09;;;-0.24;52.97
63343;BME280;49465;57.664;39.686;2023-02-18T08:06:03;100142.22;;;0.61;51.68
63343;BME280;49465;57.664;39.686;2023-02-18T08:08:33;100144.16;;;-0.19;52.38
63343;BME280;49465;57.664;39.686;2023-02-18T08:11:02;100135.41;;;-0.14;52.53
63343;BME280;49465;57.664;39.686;2023-02-18T08:13:31;100125.91;;;-0.12;52.81
63343;BME280;49465;57.664;39.686;2023-02-18T08:16:00;100128.66;;;-0.18;52.94
63343;BME280;49465;57.664;39.686;2023-02-18T08:18:30;100121.88;;;-0.22;52.80
63343;BME280;49465;57.664;39.686;2023-02-18T08:21:02;100125.19;;;-0.17;52.76
63343;BME280;49465;57.664;39.686;2023-02-18T08:23:31;100111.53;;;-0.21;52.59
63343;BME280;49465;57.664;39.686;2023-02-18T08:26:00;100110.78;;;0.79;50.79
63343;BME280;49465;57.664;39.686;2023-02-18T08:28:27;100115.59;;;0.91;50.24
63343;BME280;49465;57.664;39.686;2023-02-18T08:30:54;100110.78;;;0.12;51.72
63343;BME280;49465;57.664;39.686;2023-02-18T08:33:23;100106.72;;;0.02;51.90
63343;BME280;49465;57.664;39.686;2023-02-18T08:35:51;100103.16;;;0.07;52.26
63343;BME280;49465;57.664;39.686;2023-02-18T08:38:20;100100.50;;;0.10;52.41
63343;BME280;49465;57.664;39.686;2023-02-18T08:41:00;100098.72;;;0.12;51.94
63343;BME280;49465;57.664;39.686;2023-02-18T08:43:26;100096.16;;;0.12;51.95
63343;BME280;49465;57.664;39.686;2023-02-18T08:45:53;100086.63;;;0.16;51.91
63343;BME280;49465;57.664;39.686;2023-02-18T08:48:22;100090.22;;;0.09;52.29
63343;BME280;49465;57.664;39.686;2023-02-18T08:50:52;100089.81;;;0.26;52.04
63343;BME280;49465;57.664;39.686;2023-02-18T08:53:18;100078.72;;;0.22;52.07
63343;BME280;49465;57.664;39.686;2023-02-18T08:55:44;100085.81;;;0.14;51.73
63343;BME280;49465;57.664;39.686;2023-02-18T08:58:14;100074.75;;;0.09;51.60
63343;BME280;49465;57.664;39.686;2023-02-18T09:00:46;100071.81;;;0.23;51.77
63343;BME280;49465;57.664;39.686;2023-02-18T09:03:21;100072.44;;;0.32;51.67
63343;BME280;49465;57.664;39.686;2023-02-18T09:05:50;100064.78;;;0.29;51.56
63343;BME280;49465;57.664;39.686;2023-02-18T09:08:16;100054.53;;;0.28;51.62
63343;BME280;49465;57.664;39.686;2023-02-18T09:10:46;100058.59;;;0.35;51.79
63343;BME280;49465;57.664;39.686;2023-02-18T09:13:18;100047.59;;;0.30;51.43
63343;BME280;49465;57.664;39.686;2023-02-18T09:16:05;100044.25;;;0.59;51.23
63343;BME280;49465;57.664;39.686;2023-02-18T09:18:35;100035.19;;;0.43;51.47
63343;BME280;49465;57.664;39.686;2023-02-18T09:21:10;100035.97;;;0.46;51.07
63343;BME280;49465;57.664;39.686;2023-02-18T09:23:40;100031.59;;;0.48;51.08
63343;BME280;49465;57.664;39.686;2023-02-18T09:26:09;100035.09;;;0.47;51.24
63343;BME280;49465;57.664;39.686;2023-02-18T09:28:36;100023.97;;;0.45;50.93
63343;BME280;49465;57.664;39.686;2023-02-18T09:31:08;100026.41;;;0.50;51.16
63343;BME280;49465;57.664;39.686;2023-02-18T09:33:52;100021.75;;;0.63;51.12
63343;BME280;49465;57.664;39.686;2023-02-18T09:36:19;100020.34;;;0.51;51.13
63343;BME280;49465;57.664;39.686;2023-02-18T09:38:52;100019.03;;;0.69;50.68
63343;BME280;49465;57.664;39.686;2023-02-18T09:46:54;100008.59;;;1.02;50.50
63343;BME280;49465;57.664;39.686;2023-02-18T09:49:33;100002.41;;;0.77;50.72
63343;BME280;49465;57.664;39.686;2023-02-18T09:52:29;100005.91;;;1.06;49.89
63343;BME280;49465;57.664;39.686;2023-02-18T10:01:11;99991.47;;;0.99;50.07
63343;BME280;49465;57.664;39.686;2023-02-18T10:03:35;99982.50;;;1.66;48.64
63343;BME280;49465;57.664;39.686;2023-02-18T10:06:12;99978.53;;;1.01;49.79
63343;BME280;49465;57.664;39.686;2023-02-18T10:08:46;99977.22;;;0.86;50.24
63343;BME280;49465;57.664;39.686;2023-02-18T10:11:22;99976.13;;;0.94;49.92
63343;BME280;49465;57.664;39.686;2023-02-18T10:13:53;99975.56;;;0.85;50.56
63343;BME280;49465;57.664;39.686;2023-02-18T10:16:26;99968.38;;;0.94;50.08
63343;BME280;49465;57.664;39.686;2023-02-18T10:19:30;99967.16;;;1.34;49.73
63343;BME280;49465;57.664;39.686;2023-02-18T10:22:03;99958.09;;;0.93;50.18
63343;BME280;49465;57.664;39.686;2023-02-18T10:24:41;99965.41;;;1.07;50.15
63343;BME280;49465;57.664;39.686;2023-02-18T10:27:15;99959.13;;;0.87;50.24
63343;BME280;49465;57.664;39.686;2023-02-18T10:29:47;99957.81;;;1.02;50.21
63343;BME280;49465;57.664;39.686;2023-02-18T10:32:32;99952.03;;;1.22;50.04
63343;BME280;49465;57.664;39.686;2023-02-18T10:35:18;99949.69;;;1.94;48.46
63343;BME280;49465;57.664;39.686;2023-02-18T10:51:44;99939.22;;;1.19;49.95
63343;BME280;49465;57.664;39.686;2023-02-18T10:54:14;99937.72;;;1.12;50.01
63343;BME280;49465;57.664;39.686;2023-02-18T10:56:48;99933.63;;;1.05;49.81
63343;BME280;49465;57.664;39.686;2023-02-18T10:59:24;99928.06;;;1.45;49.69
63343;BME280;49465;57.664;39.686;2023-02-18T11:02:03;99929.53;;;1.52;49.77
63343;BME280;49465;57.664;39.686;2023-02-18T11:04:37;99929.19;;;1.36;50.08
63343;BME280;49465;57.664;39.686;2023-02-18T11:07:13;99922.91;;;1.45;49.67
63343;BME280;49465;57.664;39.686;2023-02-18T11:09:53;99914.06;;;1.51;49.75
63343;BME280;49465;57.664;39.686;2023-02-18T11:12:31;99913.72;;;1.35;50.00
63343;BME280;49465;57.664;39.686;2023-02-18T11:15:20;99919.94;;;1.56;49.64
63343;BME280;49465;57.664;39.686;2023-02-18T11:17:51;99907.03;;;1.29;49.72
63343;BME280;49465;57.664;39.686;2023-02-18T11:20:27;99906.66;;;1.42;49.63
63343;BME280;49465;57.664;39.686;2023-02-18T11:25:39;99901.44;;;1.43;49.88
63343;BME280;49465;57.664;39.686;2023-02-18T11:30:49;99896.31;;;1.42;49.61
63343;BME280;49465;57.664;39.686;2023-02-18T11:33:42;99886.66;;;1.72;48.99
63343;BME280;49465;57.664;39.686;2023-02-18T11:36:21;99882.06;;;1.30;49.60
63343;BME280;49465;57.664;39.686;2023-02-18T11:41:46;99883.72;;;1.57;48.88
63343;BME280;49465;57.664;39.686;2023-02-18T11:44:26;99876.06;;;1.54;49.19
63343;BME280;49465;57.664;39.686;2023-02-18T11:49:34;99873.81;;;1.45;49.39
63343;BME280;49465;57.664;39.686;2023-02-18T11:52:29;99864.31;;;1.71;48.64
63343;BME280;49465;57.664;39.686;2023-02-18T11:55:28;99868.56;;;1.47;49.32
63343;BME280;49465;57.664;39.686;2023-02-18T11:57:58;99862.84;;;1.37;49.08
63343;BME280;49465;57.664;39.686;2023-02-18T12:03:37;99856.41;;;1.75;48.67
63343;BME280;49465;57.664;39.686;2023-02-18T12:06:25;99855.28;;;1.57;48.78
63343;BME280;49465;57.664;39.686;2023-02-18T12:09:13;99845.91;;;1.55;49.01
63343;BME280;49465;57.664;39.686;2023-02-18T12:11:53;99850.94;;;1.33;49.34
63343;BME280;49465;57.664;39.686;2023-02-18T12:14:26;99850.19;;;1.29;49.08
63343;BME280;49465;57.664;39.686;2023-02-18T12:23:45;99836.59;;;1.74;47.34
63343;BME280;49465;57.664;39.686;2023-02-18T12:50:56;99817.78;;;0.94;49.36
63343;BME280;49465;57.664;39.686;2023-02-18T12:56:37;99808.44;;;1.16;49.18
63343;BME280;49465;57.664;39.686;2023-02-18T13:05:10;99810.03;;;1.21;49.32
63343;BME280;49465;57.664;39.686;2023-02-18T13:13:34;99810.47;;;1.33;48.99
63343;BME280;49465;57.664;39.686;2023-02-18T13:16:12;99801.78;;;1.09;49.66
63343;BME280;49465;57.664;39.686;2023-02-18T13:19:14;99798.50;;;1.31;48.94
63343;BME280;49465;57.664;39.686;2023-02-18T13:21:58;99798.88;;;0.93;49.46
63343;BME280;49465;57.664;39.686;2023-02-18T13:24:38;99792.75;;;1.23;49.17
63343;BME280;49465;57.664;39.686;2023-02-18T13:30:20;99791.78;;;1.00;49.60
63343;BME280;49465;57.664;39.686;2023-02-18T13:35:59;99789.22;;;1.00;49.32
63343;BME280;49465;57.664;39.686;2023-02-18T13:41:19;99771.94;;;0.75;49.52
63343;BME280;49465;57.664;39.686;2023-02-18T13:43:51;99774.91;;;0.63;49.71
63343;BME280;49465;57.664;39.686;2023-02-18T13:46:24;99762.31;;;0.81;49.62
63343;BME280;49465;57.664;39.686;2023-02-18T13:49:05;99767.16;;;0.63;49.84
63343;BME280;49465;57.664;39.686;2023-02-18T13:51:43;99768.44;;;0.76;49.97
63343;BME280;49465;57.664;39.686;2023-02-18T14:04:54;99753.31;;;0.66;49.83
63343;BME280;49465;57.664;39.686;2023-02-18T14:07:43;99746.81;;;0.54;50.17
63343;BME280;49465;57.664;39.686;2023-02-18T14:20:46;99749.53;;;0.49;50.46
63343;BME280;49465;57.664;39.686;2023-02-18T14:36:46;99741.69;;;0.52;50.24
63343;BME280;49465;57.664;39.686;2023-02-18T14:42:19;99736.13;;;0.38;50.65
63343;BME280;49465;57.664;39.686;2023-02-18T14:50:29;99728.22;;;0.16;50.41
63343;BME280;49465;57.664;39.686;2023-02-18T14:53:02;99733.16;;;0.24;50.61
63343;BME280;49465;57.664;39.686;2023-02-18T14:55:40;99726.47;;;0.16;51.05
63343;BME280;49465;57.664;39.686;2023-02-18T15:00:48;99721.88;;;-0.02;51.06
63343;BME280;49465;57.664;39.686;2023-02-18T15:03:17;99723.31;;;0.08;50.63
63343;BME280;49465;57.664;39.686;2023-02-18T15:05:49;99722.31;;;0.12;50.93
63343;BME280;49465;57.664;39.686;2023-02-18T15:08:24;99727.59;;;0.08;50.87
63343;BME280;49465;57.664;39.686;2023-02-18T15:11:01;99726.63;;;0.12;50.88
63343;BME280;49465;57.664;39.686;2023-02-18T15:13:31;99720.81;;;0.05;50.76
63343;BME280;49465;57.664;39.686;2023-02-18T15:16:25;99724.78;;;0.44;50.70
63343;BME280;49465;57.664;39.686;2023-02-18T15:19:12;99721.41;;;0.42;50.70
63343;BME280;49465;57.664;39.686;2023-02-18T15:21:48;99715.41;;;0.13;50.94
63343;BME280;49465;57.664;39.686;2023-02-18T15:26:57;99709.09;;;-0.05;51.14
63343;BME280;49465;57.664;39.686;2023-02-18T15:29:31;99704.50;;;0.05;51.24
63343;BME280;49465;57.664;39.686;2023-02-18T15:32:01;99706.03;;;-0.18;51.42
63343;BME280;49465;57.664;39.686;2023-02-18T15:34:39;99699.28;;;-0.22;50.97
63343;BME280;49465;57.664;39.686;2023-02-18T15:37:09;99697.44;;;-0.18;51.53
63343;BME280;49465;57.664;39.686;2023-02-18T15:39:46;99693.44;;;-0.27;51.39
63343;BME280;49465;57.664;39.686;2023-02-18T15:42:35;99690.38;;;0.70;49.84
63343;BME280;49465;57.664;39.686;2023-02-18T15:45:15;99693.47;;;-0.01;51.15
63343;BME280;49465;57.664;39.686;2023-02-18T15:47:48;99684.25;;;-0.08;51.19
63343;BME280;49465;57.664;39.686;2023-02-18T15:50:21;99678.66;;;-0.22;50.92
63343;BME280;49465;57.664;39.686;2023-02-18T15:52:54;99677.75;;;0.62;49.85
63343;BME280;49465;57.664;39.686;2023-02-18T15:55:38;99684.88;;;0.01;50.67
63343;BME280;49465;57.664;39.686;2023-02-18T15:58:12;99684.19;;;-0.06;50.96
63343;BME280;49465;57.664;39.686;2023-02-18T16:00:48;99678.94;;;-0.31;51.64
63343;BME280;49465;57.664;39.686;2023-02-18T16:06:25;99680.75;;;-0.05;51.22
63343;BME280;49465;57.664;39.686;2023-02-18T16:09:01;99678.44;;;-0.14;51.66
63343;BME280;49465;57.664;39.686;2023-02-18T16:11:40;99680.88;;;-0.10;51.34
63343;BME280;49465;57.664;39.686;2023-02-18T16:14:38;99666.91;;;0.51;49.85
63343;BME280;49465;57.664;39.686;2023-02-18T16:17:09;99667.72;;;0.53;49.48
63343;BME280;49465;57.664;39.686;2023-02-18T16:25:00;99681.41;;;-0.28;51.85
63343;BME280;49465;57.664;39.686;2023-02-18T16:27:35;99679.25;;;-0.14;51.76
63343;BME280;49465;57.664;39.686;2023-02-18T16:30:24;99678.81;;;0.02;51.42
63343;BME280;49465;57.664;39.686;2023-02-18T16:32:55;99667.69;;;-0.29;51.26
63343;BME280;49465;57.664;39.686;2023-02-18T16:35:28;99673.88;;;-0.34;51.90
63343;BME280;49465;57.664;39.686;2023-02-18T16:37:58;99675.66;;;-0.36;51.49
63343;BME280;49465;57.664;39.686;2023-02-18T16:43:08;99672.09;;;-0.32;51.57